Time;durP1;ratioP1;P1;durP2;ratioP2;P2;SDS_P1;SDS_P2;PMS_P1;PMS_P2;Temp;Humidity;BMP_temperature;BMP_pressure;BME280_temperature;BME280_humidity;BME280_pressure;Samples;Min_cycle;Max_cycle;Signal;HPM_P1;HPM_P2
2021/05/30 00:02:05;;;;;;;1.50;1.40;;;;;;;12.31;54.48;97462.22;5091491;28;20173;-66
2021/05/30 00:04:31;;;;;;;1.93;1.80;;;;;;;12.26;54.77;97462.09;5099407;28;20253;-66
2021/05/30 00:06:57;;;;;;;1.30;1.20;;;;;;;12.20;54.83;97458.53;5110740;28;20268;-66
2021/05/30 00:09:22;;;;;;;2.67;1.67;;;;;;;12.17;55.39;97468.66;5106997;28;20172;-66
2021/05/30 00:11:48;;;;;;;1.60;1.50;;;;;;;12.11;55.55;97459.00;5108592;28;20172;-65
2021/05/30 00:14:18;;;;;;;1.70;1.53;;;;;;;12.18;55.53;97457.13;5111818;28;20172;-66
2021/05/30 00:16:44;;;;;;;1.60;1.50;;;;;;;12.17;55.55;97456.31;5113717;28;20359;-66
2021/05/30 00:19:10;;;;;;;3.00;1.43;;;;;;;12.21;55.61;97459.28;5106132;28;20248;-66
2021/05/30 00:21:36;;;;;;;2.03;1.67;;;;;;;12.29;55.51;97457.19;5087404;28;20240;-66
2021/05/30 00:24:01;;;;;;;1.50;1.40;;;;;;;12.33;55.57;97452.28;5112842;28;20187;-66
2021/05/30 00:26:27;;;;;;;1.77;1.57;;;;;;;12.25;55.53;97452.59;5107332;28;20200;-66
2021/05/30 00:28:52;;;;;;;1.50;1.40;;;;;;;12.11;56.21;97456.38;5112079;28;20270;-66
2021/05/30 00:31:18;;;;;;;4.83;1.70;;;;;;;12.03;56.13;97453.03;5082151;28;20176;-66
2021/05/30 00:33:45;;;;;;;1.50;1.40;;;;;;;12.03;56.45;97452.25;5113714;28;20172;-65
2021/05/30 00:36:11;;;;;;;1.70;1.60;;;;;;;11.86;56.93;97452.03;5086137;28;20192;-65
2021/05/30 00:38:36;;;;;;;1.70;1.60;;;;;;;12.12;56.78;97456.16;5113506;28;20243;-65
2021/05/30 00:41:02;;;;;;;1.60;1.50;;;;;;;12.08;57.06;97457.66;5098356;28;20172;-65
2021/05/30 00:43:28;;;;;;;1.63;1.53;;;;;;;12.07;56.70;97461.28;5107439;28;20176;-66
2021/05/30 00:45:54;;;;;;;1.87;1.70;;;;;;;11.87;57.50;97463.34;5085702;28;20188;-66
2021/05/30 00:48:20;;;;;;;2.63;2.00;;;;;;;11.63;58.63;97457.88;5113509;28;20187;-66
2021/05/30 00:50:47;;;;;;;1.70;1.60;;;;;;;11.79;58.37;97459.16;5098458;28;20198;-66
2021/05/30 00:53:13;;;;;;;2.03;1.80;;;;;;;11.66;59.22;97459.25;5106090;28;20168;-66
2021/05/30 00:55:40;;;;;;;1.87;1.77;;;;;;;11.13;60.64;97464.94;5104961;28;20188;-66
2021/05/30 00:58:06;;;;;;;2.20;2.00;;;;;;;11.34;60.54;97465.59;5111112;28;20295;-66
2021/05/30 01:00:31;;;;;;;2.63;1.97;;;;;;;11.26;61.13;97461.41;5090043;28;20180;-67
2021/05/30 01:02:57;;;;;;;2.40;2.20;;;;;;;11.22;61.04;97465.47;5103113;28;20176;-66
2021/05/30 01:05:23;;;;;;;2.33;1.77;;;;;;;11.34;60.31;97462.97;5105383;28;20568;-66
2021/05/30 01:07:48;;;;;;;2.10;1.97;;;;;;;11.31;60.24;97464.22;5098021;28;20204;-66
2021/05/30 01:10:33;;;;;;;2.40;1.77;;;;;;;11.41;60.45;97463.72;5098329;28;20176;-66
2021/05/30 01:12:59;;;;;;;2.17;2.03;;;;;;;11.36;60.34;97461.75;5105330;28;20664;-66
2021/05/30 01:15:26;;;;;;;2.10;1.90;;;;;;;11.37;60.31;97467.81;5112961;28;20620;-66
2021/05/30 01:17:53;;;;;;;2.17;1.97;;;;;;;11.39;60.20;97463.94;5100655;28;20191;-66
2021/05/30 01:20:20;;;;;;;2.23;2.03;;;;;;;11.30;60.78;97464.41;5104264;28;20252;-66
2021/05/30 01:22:47;;;;;;;3.07;1.90;;;;;;;11.22;60.61;97461.03;5107089;28;20697;-66
2021/05/30 01:25:15;;;;;;;3.40;2.17;;;;;;;11.20;61.09;97472.78;5102503;28;20287;-66
2021/05/30 01:27:41;;;;;;;2.03;1.90;;;;;;;11.29;60.81;97468.84;5094361;28;20633;-66
2021/05/30 01:30:08;;;;;;;2.37;2.17;;;;;;;11.24;60.95;97471.31;5102230;28;20252;-66
2021/05/30 01:32:34;;;;;;;2.00;1.80;;;;;;;11.24;61.38;97461.63;5111682;28;20539;-66
2021/05/30 01:35:00;;;;;;;2.40;2.20;;;;;;;11.03;62.01;97471.69;5098496;28;20176;-66
2021/05/30 01:37:26;;;;;;;2.10;1.93;;;;;;;11.06;62.19;97463.38;5102720;28;20693;-67
2021/05/30 01:39:52;;;;;;;2.40;2.20;;;;;;;11.08;62.12;97474.47;5100131;28;20214;-66
2021/05/30 01:42:17;;;;;;;2.23;2.03;;;;;;;10.86;63.04;97470.56;5101866;28;20204;-67
2021/05/30 01:44:43;;;;;;;3.13;2.13;;;;;;;11.00;63.16;97474.72;5102592;28;20205;-66
2021/05/30 01:47:08;;;;;;;2.40;2.20;;;;;;;10.92;63.49;97474.97;5102159;28;20192;-66
2021/05/30 01:49:35;;;;;;;2.47;2.27;;;;;;;10.80;64.10;97473.03;5101541;28;20741;-66
2021/05/30 01:52:02;;;;;;;2.77;2.57;;;;;;;10.83;64.03;97466.53;5105029;28;20187;-65
2021/05/30 01:54:28;;;;;;;2.37;2.10;;;;;;;10.79;64.44;97470.63;5101945;28;20180;-65
2021/05/30 01:56:57;;;;;;;2.83;2.53;;;;;;;10.78;64.41;97472.44;5094045;28;20205;-65
2021/05/30 01:59:31;;;;;;;2.93;2.67;;;;;;;10.71;64.90;97476.09;5090741;28;20224;-66
2021/05/30 02:01:58;;;;;;;2.97;2.37;;;;;;;10.64;64.56;97473.53;5093240;28;20184;-66
2021/05/30 02:04:30;;;;;;;2.60;2.30;;;;;;;10.69;64.63;97468.47;5092023;28;20262;-66
2021/05/30 02:06:57;;;;;;;2.20;2.00;;;;;;;10.69;64.91;97475.50;5093621;28;20629;-65
2021/05/30 02:09:23;;;;;;;2.47;2.27;;;;;;;10.64;65.19;97470.91;5092170;28;20575;-66
2021/05/30 02:11:48;;;;;;;3.47;2.20;;;;;;;10.53;65.50;97476.81;5092692;28;20222;-66
2021/05/30 02:14:14;;;;;;;2.77;2.20;;;;;;;10.59;65.12;97478.56;5092412;28;20637;-66
2021/05/30 02:16:42;;;;;;;2.93;2.13;;;;;;;10.34;65.89;97475.06;5092408;28;20207;-66
2021/05/30 02:19:08;;;;;;;2.57;2.37;;;;;;;10.52;65.66;97474.38;5092405;28;20187;-66
2021/05/30 02:21:42;;;;;;;2.33;2.23;;;;;;;10.38;66.11;97469.19;5092170;28;20180;-65
2021/05/30 02:24:08;;;;;;;2.57;2.10;;;;;;;10.25;66.42;97471.09;5092631;28;20188;-66
2021/05/30 02:26:33;;;;;;;2.63;2.30;;;;;;;10.13;67.04;97472.69;5091983;28;20243;-66
2021/05/30 02:28:58;;;;;;;2.90;2.67;;;;;;;10.11;67.11;97474.72;5091729;28;20185;-66
2021/05/30 02:31:24;;;;;;;4.80;2.50;;;;;;;10.24;66.85;97470.28;5091346;28;20168;-66
2021/05/30 02:33:50;;;;;;;2.50;2.30;;;;;;;10.19;66.84;97472.72;5092406;28;20169;-66
2021/05/30 02:36:15;;;;;;;2.47;2.27;;;;;;;10.13;67.30;97476.13;5092240;28;20207;-65
2021/05/30 02:38:41;;;;;;;2.60;2.40;;;;;;;10.15;66.67;97476.69;5091831;28;20559;-66
2021/05/30 02:41:07;;;;;;;3.80;2.20;;;;;;;10.28;66.35;97476.69;5092333;28;20172;-66
2021/05/30 02:43:32;;;;;;;2.57;2.37;;;;;;;10.10;66.97;97479.13;5091755;28;20182;-66
2021/05/30 02:45:58;;;;;;;3.70;2.20;;;;;;;10.23;66.53;97480.94;5091954;28;20172;-66
2021/05/30 02:48:24;;;;;;;2.70;2.50;;;;;;;10.25;66.51;97468.47;5091090;28;20192;-66
2021/05/30 02:50:58;;;;;;;2.67;2.47;;;;;;;9.97;67.64;97473.97;5091989;28;20181;-66
2021/05/30 02:53:28;;;;;;;2.37;2.17;;;;;;;9.93;67.79;97477.97;5091700;28;20178;-66
2021/05/30 02:55:55;;;;;;;2.90;2.60;;;;;;;10.02;67.37;97482.00;5092265;28;20677;-66
2021/05/30 02:58:22;;;;;;;2.87;2.20;;;;;;;9.98;67.76;97475.53;5089149;28;20224;-66
2021/05/30 03:00:48;;;;;;;4.50;2.80;;;;;;;9.98;67.72;97478.97;5091921;28;20180;-66
2021/05/30 03:03:13;;;;;;;2.73;2.53;;;;;;;9.94;68.58;97482.19;5091837;28;20535;-66
2021/05/30 03:05:39;;;;;;;2.67;2.47;;;;;;;9.91;68.93;97488.69;5091121;28;20259;-66
2021/05/30 03:08:04;;;;;;;2.77;2.57;;;;;;;9.90;68.61;97488.88;5092242;28;20559;-66
2021/05/30 03:10:30;;;;;;;2.83;2.40;;;;;;;9.96;68.88;97493.28;5090895;28;20204;-66
2021/05/30 03:12:56;;;;;;;2.77;2.57;;;;;;;9.83;69.51;97491.50;5090860;28;20207;-66
2021/05/30 03:15:21;;;;;;;2.97;2.70;;;;;;;9.92;69.29;97492.06;5091231;28;20200;-66
2021/05/30 03:17:47;;;;;;;2.83;2.63;;;;;;;9.97;69.41;97487.06;5091484;28;20193;-66
2021/05/30 03:20:13;;;;;;;2.93;2.47;;;;;;;9.89;68.87;97489.88;5091945;28;20177;-66
2021/05/30 03:22:38;;;;;;;2.57;2.37;;;;;;;10.01;68.22;97485.63;5090765;28;20184;-65
2021/05/30 03:25:04;;;;;;;2.90;2.60;;;;;;;9.97;68.35;97487.81;5091760;28;20188;-65
2021/05/30 03:27:30;;;;;;;2.73;2.00;;;;;;;9.89;68.61;97484.63;5090999;28;20204;-65
2021/05/30 03:29:56;;;;;;;2.70;2.50;;;;;;;9.83;69.39;97486.25;5091573;28;20183;-66
2021/05/30 03:32:23;;;;;;;2.43;2.10;;;;;;;9.98;67.86;97486.81;5090502;28;20173;-66
2021/05/30 03:34:48;;;;;;;3.13;2.20;;;;;;;9.99;68.29;97491.06;5091461;28;20184;-65
2021/05/30 03:37:14;;;;;;;3.80;2.80;;;;;;;10.11;67.71;97490.41;5091568;28;20204;-65
2021/05/30 03:39:42;;;;;;;2.47;2.30;;;;;;;10.02;67.30;97489.84;5090827;28;20181;-66
2021/05/30 03:42:10;;;;;;;2.70;2.13;;;;;;;10.13;67.09;97496.28;5091011;28;20211;-66
2021/05/30 03:44:36;;;;;;;2.50;2.30;;;;;;;10.15;67.44;97487.19;5090591;28;20208;-66
2021/05/30 03:47:02;;;;;;;3.00;2.27;;;;;;;10.27;66.95;97490.81;5091419;28;20200;-65
2021/05/30 03:49:27;;;;;;;2.20;2.00;;;;;;;10.40;66.39;97485.53;5090410;28;20653;-66
2021/05/30 03:51:53;;;;;;;2.60;2.40;;;;;;;10.61;66.12;97487.03;5091533;28;20199;-66
2021/05/30 03:54:19;;;;;;;2.53;2.33;;;;;;;10.62;65.93;97490.47;5090933;28;20176;-65
2021/05/30 03:56:44;;;;;;;3.07;2.47;;;;;;;10.86;65.10;97492.38;5090905;28;20661;-65
2021/05/30 03:59:10;;;;;;;2.30;2.20;;;;;;;10.72;65.61;97496.88;5089146;28;20699;-65
2021/05/30 04:01:37;;;;;;;3.03;2.30;;;;;;;10.89;65.54;97499.00;5090766;28;20272;-65
2021/05/30 04:04:03;;;;;;;2.30;2.10;;;;;;;11.02;64.77;97499.72;5091140;28;20196;-65
2021/05/30 04:06:28;;;;;;;3.23;2.20;;;;;;;11.07;64.73;97499.09;5090593;28;20207;-65
2021/05/30 04:08:54;;;;;;;2.17;2.03;;;;;;;11.51;63.42;97498.16;5091344;28;20559;-65
2021/05/30 04:11:21;;;;;;;2.83;2.30;;;;;;;11.62;63.02;97498.25;5091005;28;20251;-66
2021/05/30 04:13:46;;;;;;;2.60;2.13;;;;;;;11.53;63.10;97504.00;5090157;28;20289;-65
2021/05/30 04:16:12;;;;;;;2.63;1.90;;;;;;;11.69;62.87;97500.84;5090816;28;20646;-66
2021/05/30 04:18:37;;;;;;;2.40;1.90;;;;;;;11.74;62.29;97498.41;5090144;28;20164;-66
2021/05/30 04:21:04;;;;;;;2.30;2.10;;;;;;;11.89;61.92;97498.84;5091157;28;20226;-66
2021/05/30 04:23:30;;;;;;;2.10;2.00;;;;;;;11.97;61.66;97500.41;5090060;28;20176;-66
2021/05/30 04:25:57;;;;;;;2.37;1.90;;;;;;;12.08;61.12;97492.59;5072920;28;20176;-66
2021/05/30 04:28:23;;;;;;;2.63;2.30;;;;;;;12.12;61.23;97500.84;5090398;28;20202;-66
2021/05/30 04:30:48;;;;;;;2.73;1.90;;;;;;;12.14;60.32;97501.44;5091011;28;20268;-66
2021/05/30 04:33:14;;;;;;;1.90;1.80;;;;;;;12.50;59.83;97498.78;5090680;28;20233;-66
2021/05/30 04:35:40;;;;;;;2.93;2.10;;;;;;;12.60;59.24;97495.63;5090183;28;20238;-65
2021/05/30 04:38:06;;;;;;;2.20;1.93;;;;;;;12.67;58.34;97498.97;5090742;28;20227;-66
2021/05/30 04:40:32;;;;;;;2.10;2.00;;;;;;;12.25;59.21;97500.72;5090058;28;20212;-66
2021/05/30 04:42:58;;;;;;;2.87;2.23;;;;;;;12.22;59.54;97505.59;5090591;28;20256;-66
2021/05/30 04:45:24;;;;;;;2.13;2.00;;;;;;;12.46;59.22;97509.97;5089947;28;20672;-65
2021/05/30 04:47:50;;;;;;;2.53;2.07;;;;;;;12.23;59.94;97502.75;5090753;28;20243;-66
2021/05/30 04:50:15;;;;;;;2.50;2.30;;;;;;;11.97;60.58;97511.72;5090490;28;20271;-65
2021/05/30 04:52:42;;;;;;;2.40;1.90;;;;;;;12.39;60.16;97502.16;5091044;28;20691;-65
2021/05/30 04:55:10;;;;;;;3.53;2.00;;;;;;;12.56;59.33;97494.47;5094572;28;20192;-66
2021/05/30 04:57:37;;;;;;;2.43;2.07;;;;;;;12.62;58.48;97493.59;5094998;28;20711;-66
2021/05/30 05:00:05;;;;;;;2.47;2.23;;;;;;;12.71;58.96;97491.44;5099500;28;20263;-66
2021/05/30 05:02:31;;;;;;;2.20;2.00;;;;;;;13.20;57.38;97493.84;5103019;28;20207;-66
2021/05/30 05:04:56;;;;;;;1.80;1.70;;;;;;;13.32;57.03;97488.56;5108553;28;20575;-66
2021/05/30 05:07:28;;;;;;;1.90;1.80;;;;;;;13.56;56.06;97486.78;5095169;28;20238;-66
2021/05/30 05:09:53;;;;;;;2.27;1.80;;;;;;;13.24;56.76;97491.53;5108538;28;20180;-66
2021/05/30 05:12:19;;;;;;;2.60;1.70;;;;;;;13.47;55.93;97496.84;5102749;28;20172;-66
2021/05/30 05:14:44;;;;;;;3.00;1.93;;;;;;;13.11;57.48;97496.97;5109215;28;20669;-65
2021/05/30 05:17:09;;;;;;;2.63;1.97;;;;;;;13.43;56.73;97497.53;5094691;28;20289;-66
2021/05/30 05:19:35;;;;;;;2.67;1.83;;;;;;;13.86;55.89;97497.22;5104968;28;20184;-66
2021/05/30 05:22:02;;;;;;;2.40;1.93;;;;;;;13.85;55.73;97500.88;5099768;28;20322;-65
2021/05/30 05:24:28;;;;;;;2.07;1.97;;;;;;;13.86;55.45;97498.03;5110010;28;20199;-66
2021/05/30 05:26:53;;;;;;;2.03;1.70;;;;;;;13.35;55.72;97500.50;5099618;28;20594;-65
2021/05/30 05:29:19;;;;;;;1.80;1.70;;;;;;;13.28;56.43;97488.22;5105019;28;20177;-68
2021/05/30 05:31:45;;;;;;;2.57;2.00;;;;;;;13.92;54.91;97488.41;5106158;28;20735;-66
2021/05/30 05:34:11;;;;;;;1.87;1.67;;;;;;;14.22;54.46;97488.22;5098313;28;20545;-66
2021/05/30 05:36:37;;;;;;;1.73;1.63;;;;;;;13.95;55.06;97496.63;5108202;28;20203;-66
2021/05/30 05:39:03;;;;;;;2.42;2.22;;;;;;;14.05;54.66;97501.31;5100787;28;20180;-65
2021/05/30 05:41:29;;;;;;;2.57;1.90;;;;;;;14.12;55.62;97496.75;5102875;28;20567;-66
2021/05/30 05:43:55;;;;;;;2.00;1.90;;;;;;;14.06;56.27;97500.28;5107778;28;20207;-66
2021/05/30 05:46:21;;;;;;;2.17;1.97;;;;;;;14.31;55.47;97505.31;5110889;28;20211;-65
2021/05/30 05:48:47;;;;;;;3.22;2.03;;;;;;;14.23;55.82;97501.19;5097006;28;20314;-65
2021/05/30 05:51:14;;;;;;;1.60;1.50;;;;;;;13.96;56.00;97500.88;5098562;28;20640;-65
2021/05/30 05:53:40;;;;;;;3.05;1.70;;;;;;;13.98;54.32;97498.84;5092720;28;20191;-66
2021/05/30 05:56:07;;;;;;;2.03;1.83;;;;;;;14.46;54.41;97508.28;5108995;28;20203;-65
2021/05/30 05:58:32;;;;;;;1.90;1.80;;;;;;;14.70;54.11;97506.41;5100938;28;20227;-66
2021/05/30 06:00:59;;;;;;;2.23;2.00;;;;;;;14.77;53.56;97502.56;5101265;28;20181;-66
2021/05/30 06:03:31;;;;;;;2.00;1.80;;;;;;;14.59;54.09;97507.25;5109799;28;20164;-65
2021/05/30 06:05:57;;;;;;;2.35;2.15;;;;;;;13.99;55.74;97505.69;5099105;28;20188;-66
2021/05/30 06:08:23;;;;;;;2.50;2.30;;;;;;;14.06;56.37;97509.00;5104775;28;20222;-66
2021/05/30 06:10:49;;;;;;;1.87;1.77;;;;;;;14.33;55.48;97514.59;5100699;28;20181;-66
2021/05/30 06:13:15;;;;;;;3.20;2.20;;;;;;;14.79;59.96;97502.34;5111057;28;20182;-71
2021/05/30 06:15:41;;;;;;;3.03;2.00;;;;;;;14.60;54.62;97506.22;5108610;28;20263;-66
2021/05/30 06:18:12;;;;;;;1.98;1.85;;;;;;;14.61;54.40;97510.41;5100241;28;20252;-66
2021/05/30 06:20:39;;;;;;;2.53;1.80;;;;;;;14.60;54.15;97506.22;5110351;28;20648;-67
2021/05/30 06:23:06;;;;;;;8.30;2.10;;;;;;;14.77;53.50;97507.03;5098726;28;20263;-67
2021/05/30 06:25:32;;;;;;;2.03;1.93;;;;;;;14.59;54.45;97513.31;5098944;28;20201;-68
2021/05/30 06:27:59;;;;;;;2.23;2.00;;;;;;;14.68;54.22;97509.25;5110223;28;20195;-66
2021/05/30 06:30:27;;;;;;;2.40;2.20;;;;;;;14.69;53.99;97510.88;5109324;28;20713;-68
2021/05/30 06:32:54;;;;;;;2.30;2.10;;;;;;;14.94;53.35;97510.53;5099166;28;20626;-66
2021/05/30 06:35:20;;;;;;;2.40;2.20;;;;;;;14.76;53.13;97510.75;5106219;28;20171;-68
2021/05/30 06:37:46;;;;;;;2.97;2.30;;;;;;;14.73;53.64;97512.00;5107679;28;20196;-69
2021/05/30 06:40:12;;;;;;;3.43;2.20;;;;;;;14.83;53.40;97503.47;5102529;28;20201;-69
2021/05/30 06:42:38;;;;;;;2.57;2.33;;;;;;;14.62;53.10;97512.03;5109550;28;20547;-69
2021/05/30 06:45:04;;;;;;;2.93;2.07;;;;;;;14.35;52.75;97509.91;5098022;28;20212;-69
2021/05/30 06:47:30;;;;;;;2.03;1.90;;;;;;;14.52;53.25;97505.53;5107234;28;21043;-67
2021/05/30 06:49:56;;;;;;;2.30;2.10;;;;;;;14.69;52.96;97507.44;5093150;28;20176;-67
2021/05/30 06:52:22;;;;;;;2.55;2.00;;;;;;;14.85;52.84;97504.84;5094437;28;20184;-68
2021/05/30 06:54:48;;;;;;;2.40;1.93;;;;;;;14.78;52.31;97511.28;5093625;28;20295;-68
2021/05/30 06:57:14;;;;;;;2.40;2.00;;;;;;;14.63;52.96;97514.44;5093400;28;20300;-70
2021/05/30 06:59:40;;;;;;;1.90;1.80;;;;;;;15.12;51.80;97501.63;5105911;28;20184;-70
2021/05/30 07:02:06;;;;;;;1.93;1.83;;;;;;;15.38;51.03;97508.94;5094622;28;20259;-70
2021/05/30 07:04:32;;;;;;;2.37;2.20;;;;;;;15.27;51.09;97504.50;5101580;28;20187;-70
2021/05/30 07:06:58;;;;;;;1.83;1.73;;;;;;;14.99;51.16;97503.50;5107122;28;20212;-69
2021/05/30 07:09:23;;;;;;;2.10;1.97;;;;;;;15.17;50.85;97513.06;5102501;28;20192;-69
2021/05/30 07:11:49;;;;;;;2.00;1.80;;;;;;;15.56;50.12;97521.16;5098855;28;20187;-70
2021/05/30 07:14:15;;;;;;;1.90;1.80;;;;;;;15.48;50.36;97514.41;5098343;28;20176;-70
2021/05/30 07:16:42;;;;;;;2.30;2.10;;;;;;;15.44;50.12;97515.09;5101290;28;20705;-69
2021/05/30 07:19:08;;;;;;;1.80;1.70;;;;;;;15.48;49.54;97519.69;5096465;28;20196;-69
2021/05/30 07:21:34;;;;;;;1.80;1.70;;;;;;;15.64;48.97;97523.41;5100409;28;20187;-67
2021/05/30 07:23:59;;;;;;;2.00;1.80;;;;;;;15.66;48.31;97516.03;5098538;28;20193;-66
2021/05/30 07:26:25;;;;;;;2.15;1.77;;;;;;;15.67;48.58;97513.13;5098356;28;20207;-68
2021/05/30 07:28:52;;;;;;;1.77;1.67;;;;;;;15.93;48.20;97516.19;5105908;28;20184;-68
2021/05/30 07:31:17;;;;;;;2.40;1.75;;;;;;;16.14;48.35;97513.59;5104854;28;20303;-66
2021/05/30 07:33:45;;;;;;;2.33;1.90;;;;;;;16.33;47.49;97516.72;5099647;28;20304;-66
2021/05/30 07:36:12;;;;;;;2.15;1.83;;;;;;;16.57;46.02;97517.28;5104861;28;20195;-67
2021/05/30 07:38:38;;;;;;;1.70;1.60;;;;;;;16.57;46.45;97517.28;5103729;28;20180;-66
2021/05/30 07:41:04;;;;;;;2.08;1.73;;;;;;;16.24;45.77;97515.56;5107776;28;20176;-65
2021/05/30 07:43:30;;;;;;;2.10;1.90;;;;;;;16.15;47.14;97517.84;5100299;28;20180;-69
2021/05/30 07:45:56;;;;;;;2.22;1.80;;;;;;;16.28;45.21;97506.06;5095436;28;20175;-65
2021/05/30 07:48:22;;;;;;;1.70;1.50;;;;;;;16.31;46.06;97518.84;5104631;28;20172;-65
2021/05/30 07:50:48;;;;;;;2.50;1.77;;;;;;;16.04;47.56;97518.72;5102569;28;20187;-65
2021/05/30 07:53:15;;;;;;;3.47;2.35;;;;;;;15.84;46.84;97526.34;5096416;28;20176;-65
2021/05/30 07:55:42;;;;;;;1.83;1.73;;;;;;;15.94;47.34;97517.78;5091808;28;20546;-65
2021/05/30 07:58:08;;;;;;;1.90;1.80;;;;;;;16.14;48.32;97513.59;5097782;28;20654;-65
2021/05/30 08:00:34;;;;;;;2.47;2.27;;;;;;;15.95;49.32;97516.72;5091280;28;20271;-65
2021/05/30 08:03:00;;;;;;;1.83;1.70;;;;;;;15.90;47.64;97511.38;5094737;28;20263;-65
2021/05/30 08:05:26;;;;;;;1.70;1.60;;;;;;;15.87;48.91;97517.16;5091871;28;20196;-65
2021/05/30 08:07:51;;;;;;;2.00;1.80;;;;;;;16.35;47.91;97514.66;5091324;28;20278;-65
2021/05/30 08:10:20;;;;;;;2.30;1.98;;;;;;;16.71;46.87;97517.78;5094503;28;20172;-65
2021/05/30 08:12:47;;;;;;;2.78;1.73;;;;;;;16.41;43.29;97512.88;5098483;28;20173;-65
2021/05/30 08:15:13;;;;;;;1.57;1.47;;;;;;;16.14;42.34;97518.06;5091929;28;20219;-65
2021/05/30 08:17:39;;;;;;;1.58;1.48;;;;;;;16.33;44.87;97510.66;5091809;28;20196;-67
2021/05/30 08:20:07;;;;;;;1.80;1.70;;;;;;;16.40;42.93;97511.25;5092025;28;20193;-67
2021/05/30 08:22:34;;;;;;;3.57;1.60;;;;;;;16.41;42.28;97512.88;5093354;28;20216;-67
2021/05/30 08:25:01;;;;;;;1.77;1.67;;;;;;;16.23;41.72;97521.88;5091493;28;20188;-69
2021/05/30 08:27:32;;;;;;;1.70;1.60;;;;;;;16.18;40.54;97525.25;5094318;28;20294;-66
2021/05/30 08:29:58;;;;;;;1.63;1.53;;;;;;;16.30;41.99;97517.22;5096135;28;20175;-67
2021/05/30 08:32:24;;;;;;;2.00;1.27;;;;;;;16.41;42.38;97518.16;5098055;28;20697;-67
2021/05/30 08:34:50;;;;;;;1.70;1.60;;;;;;;16.19;41.36;97521.59;5095590;28;20161;-67
2021/05/30 08:37:18;;;;;;;1.47;1.37;;;;;;;16.54;41.97;97509.88;5095992;28;20253;-67
2021/05/30 08:39:44;;;;;;;1.63;1.47;;;;;;;16.80;41.54;97518.91;5100152;28;20189;-67
2021/05/30 08:42:10;;;;;;;1.57;1.47;;;;;;;16.60;41.95;97527.44;5109518;28;20169;-67
2021/05/30 08:44:36;;;;;;;1.80;1.70;;;;;;;16.56;41.77;97513.03;5108567;28;20207;-68
2021/05/30 08:47:02;;;;;;;2.67;1.70;;;;;;;16.28;42.71;97505.28;5107703;28;20199;-67
2021/05/30 08:49:28;;;;;;;1.93;1.63;;;;;;;16.30;42.74;97519.88;5103312;28;20218;-67
2021/05/30 08:51:53;;;;;;;2.23;1.50;;;;;;;16.23;42.80;97517.41;5103257;28;20300;-68
2021/05/30 08:54:20;;;;;;;2.30;1.80;;;;;;;16.25;43.35;97511.88;5099996;28;20173;-67
2021/05/30 08:56:48;;;;;;;1.67;1.57;;;;;;;16.31;41.90;97508.25;5105088;28;20200;-67
2021/05/30 08:59:33;;;;;;;1.77;1.63;;;;;;;16.11;42.33;97535.22;5095062;28;20224;-67
2021/05/30 09:02:03;;;;;;;1.83;1.53;;;;;;;15.82;41.32;97522.38;5086799;28;20175;-67
2021/05/30 09:04:33;;;;;;;1.70;1.60;;;;;;;16.18;41.73;97509.41;5094087;28;20192;-67
2021/05/30 09:06:59;;;;;;;1.40;1.30;;;;;;;15.98;39.60;97518.91;5093630;28;20204;-67
2021/05/30 09:09:25;;;;;;;1.90;1.60;;;;;;;16.44;40.23;97504.44;5094188;28;20233;-67
2021/05/30 09:11:53;;;;;;;1.35;1.35;;;;;;;16.22;40.86;97512.34;5092606;28;20354;-67
2021/05/30 09:14:24;;;;;;;1.67;1.57;;;;;;;16.30;41.33;97508.50;5093904;28;20161;-68
2021/05/30 09:17:04;;;;;;;1.27;1.25;;;;;;;16.71;40.93;97510.63;5093059;28;20208;-67
2021/05/30 09:19:41;;;;;;;1.40;1.30;;;;;;;16.62;40.27;97517.38;5072173;28;20176;-68
2021/05/30 09:22:26;;;;;;;1.53;1.43;;;;;;;16.72;40.58;97506.91;5086705;28;20230;-66
2021/05/30 09:24:52;;;;;;;1.55;1.45;;;;;;;16.59;41.34;97502.81;5092586;28;20184;-65
2021/05/30 09:27:20;;;;;;;1.77;1.67;;;;;;;16.45;40.95;97506.03;5094045;28;20703;-66
2021/05/30 09:30:09;;;;;;;1.60;1.50;;;;;;;16.66;41.20;97499.19;5093107;28;20173;-66
2021/05/30 09:32:53;;;;;;;1.77;1.67;;;;;;;16.51;40.86;97519.09;5092946;28;20597;-67
2021/05/30 09:35:24;;;;;;;1.93;1.60;;;;;;;16.53;40.52;97510.91;5094007;28;20248;-66
2021/05/30 09:38:08;;;;;;;2.13;1.63;;;;;;;16.22;40.00;97502.56;5092922;28;20266;-66
2021/05/30 09:40:41;;;;;;;2.10;1.90;;;;;;;15.99;41.54;97508.09;5093365;28;20177;-66
2021/05/30 09:43:12;;;;;;;1.80;1.70;;;;;;;16.23;41.67;97503.38;5093613;28;20176;-66
2021/05/30 09:45:42;;;;;;;1.20;1.20;;;;;;;16.54;40.93;97493.97;5092842;28;20200;-66
2021/05/30 09:48:19;;;;;;;1.40;1.30;;;;;;;16.50;40.04;97491.00;5093798;28;20200;-68
2021/05/30 09:51:02;;;;;;;1.70;1.57;;;;;;;16.66;41.03;97499.19;5092771;28;20180;-70
2021/05/30 09:53:30;;;;;;;1.80;1.70;;;;;;;16.89;39.96;97501.53;5096453;28;20424;-80
2021/05/30 09:55:56;;;;;;;1.60;1.50;;;;;;;17.23;39.82;97494.19;5084990;28;20183;-79
2021/05/30 09:58:24;;;;;;;4.20;1.70;;;;;;;17.09;41.36;97500.97;5097764;28;20229;-77
2021/05/30 10:00:52;;;;;;;1.80;1.70;;;;;;;17.32;40.60;97513.91;5096580;28;20175;-79
2021/05/30 10:03:22;;;;;;;1.77;1.67;;;;;;;16.91;40.28;97529.38;5102776;28;20164;-79
2021/05/30 10:05:47;;;;;;;2.30;1.75;;;;;;;16.71;40.90;97515.13;5094435;28;20626;-67
2021/05/30 10:08:18;;;;;;;1.70;1.60;;;;;;;16.77;41.51;97512.28;5092309;28;20325;-67
2021/05/30 10:10:45;;;;;;;1.73;1.63;;;;;;;16.56;41.45;97513.03;5085639;28;20169;-67
2021/05/30 10:13:10;;;;;;;1.90;1.80;;;;;;;16.71;41.66;97509.81;5093092;28;20290;-74
2021/05/30 10:15:37;;;;;;;2.00;1.90;;;;;;;16.92;41.43;97509.78;5093419;28;20214;-76
2021/05/30 10:18:11;;;;;;;1.88;1.70;;;;;;;16.89;41.66;97506.81;5094861;28;20196;-72
2021/05/30 10:20:39;;;;;;;2.22;1.98;;;;;;;17.13;41.23;97510.00;5092888;28;20199;-76
2021/05/30 10:23:05;;;;;;;3.75;2.15;;;;;;;17.13;40.35;97504.69;5073821;28;20187;-66
2021/05/30 10:25:35;;;;;;;7.70;3.95;;;;;;;17.79;38.90;97500.78;5091986;28;20205;-66
2021/05/30 10:28:08;;;;;;;2.92;2.60;;;;;;;17.84;39.27;97498.97;5089830;28;20200;-66
2021/05/30 10:30:35;;;;;;;3.40;2.92;;;;;;;17.75;39.64;97489.09;5091434;28;20259;-66
2021/05/30 10:33:16;;;;;;;18.85;14.52;;;;;;;17.81;39.79;97490.72;5091608;28;20177;-67
2021/05/30 10:35:45;;;;;;;3.45;2.92;;;;;;;17.34;40.12;97485.28;5088803;28;20172;-66
2021/05/30 10:38:11;;;;;;;1.75;1.65;;;;;;;17.02;41.09;97483.41;5091700;28;20193;-66
2021/05/30 10:40:43;;;;;;;1.70;1.60;;;;;;;16.81;40.82;97499.34;5077803;28;20307;-68
2021/05/30 10:43:12;;;;;;;1.95;1.85;;;;;;;16.43;40.81;97493.06;5073330;28;20165;-66
2021/05/30 10:45:43;;;;;;;1.70;1.60;;;;;;;16.31;41.62;97495.03;5090024;28;20204;-66
2021/05/30 10:48:13;;;;;;;2.00;1.90;;;;;;;16.25;41.50;97490.72;5091362;28;20227;-66
2021/05/30 10:50:48;;;;;;;1.83;1.73;;;;;;;16.35;41.90;97490.03;5089606;28;20181;-67
2021/05/30 10:53:34;;;;;;;1.60;1.50;;;;;;;16.34;41.19;97501.66;5090642;28;20198;-66
2021/05/30 10:56:21;;;;;;;1.70;1.60;;;;;;;16.44;41.14;97494.63;5089682;28;20643;-68
2021/05/30 10:59:06;;;;;;;1.90;1.60;;;;;;;16.53;41.78;97492.38;5093791;28;20277;-67
2021/05/30 11:01:34;;;;;;;2.27;1.70;;;;;;;16.69;41.09;97488.88;5095436;28;20196;-68
2021/05/30 11:04:35;;;;;;;1.67;1.52;;;;;;;16.83;41.16;97479.50;5085122;28;20203;-68
2021/05/30 11:07:20;;;;;;;2.03;1.83;;;;;;;17.53;40.24;97483.84;5048452;28;20207;-69
2021/05/30 11:09:49;;;;;;;1.85;1.75;;;;;;;17.48;38.85;97483.03;5088478;28;20729;-69
2021/05/30 11:12:22;;;;;;;2.00;1.90;;;;;;;17.41;39.36;97481.38;5106713;28;20246;-69
2021/05/30 11:15:13;;;;;;;1.67;1.58;;;;;;;17.20;37.90;97469.00;5100353;28;20216;-69
2021/05/30 11:17:40;;;;;;;2.47;1.90;;;;;;;17.56;38.17;97475.38;5088462;28;20204;-69
2021/05/30 11:20:20;;;;;;;1.60;1.50;;;;;;;17.60;36.86;97470.44;5097332;28;20164;-68
2021/05/30 11:22:58;;;;;;;1.65;1.55;;;;;;;17.33;36.87;97463.28;5099979;28;20176;-69
2021/05/30 11:25:48;;;;;;;1.90;1.67;;;;;;;17.20;37.96;97481.47;5107131;28;20552;-68
2021/05/30 11:28:25;;;;;;;1.50;1.40;;;;;;;17.18;37.75;97470.31;5091668;28;20545;-71
2021/05/30 11:30:58;;;;;;;3.17;1.90;;;;;;;17.40;38.05;97463.06;5102390;28;20700;-69
2021/05/30 11:33:25;;;;;;;1.60;1.50;;;;;;;17.53;36.81;97475.09;5095487;28;20219;-69
2021/05/30 11:35:57;;;;;;;1.67;1.58;;;;;;;17.34;36.70;97469.38;5103547;28;20248;-69
2021/05/30 11:38:32;;;;;;;1.63;1.52;;;;;;;17.51;35.73;97469.25;5107438;28;20259;-69